Sacramento International Airport Sacramento US
ICAO: KSMF
IATA: SMF
Category: Large
Scheduled Services: Yes

Elevation: 27 ft
TransAlt. 18000 ft.

Airport Communications:
NORCAL APP/DEP:25.91
NORCAL APP/DEP:125.25
ATIS:126.75
CLNC DEL:121.1
GND:121.7
CAPITOL TWR:125.7
UNICOM:122.95

KSMF Zoom In..

If you have problems with the map follow the link
https://www.worldairports.se/pages/airport.php?
ICAO=KSMF

Runways:

(A) RW 16L length 8605 ft width 150 ft
ILS 111.75 / hdg 164

(B) RW 16R length 8598 ft width 150 ft
ILS 111.10 / hdg 164

(C) RW 34L length 8598 ft width 150 ft
ILS 111.10 / hdg 344

(D) RW 34R length 8605 ft width 150 ft
---- / hdg 344

Location; KSMF
Day. 13 / Time. 12.53 Zulu
* Altimeter: 30.20
* Temperature: 13° c. 55.4°f.
* Wind from: 000° Speed 00 kn.
Dewpoint: 13° c.
Visibility: 1/4 Statute Miles.
Conditions: Fog.

KSMF 131253Z 00000KT 1/4SM R16R/1200FT FG VV002 13/13 A3020 RMK AO2 SLP227 T01280128


Wind - Calm.

 
 
jpsmedia worldairports.se 2019   terms of use